Time;durP1;ratioP1;P1;durP2;ratioP2;P2;SDS_P1;SDS_P2;PMS_P1;PMS_P2;Temp;Humidity;BMP_temperature;BMP_pressure;BME280_temperature;BME280_humidity;BME280_pressure;Samples;Min_cycle;Max_cycle;Signal;HPM_P1;HPM_P2
2021/08/24 00:01:11;;;;;;;3.00;2.40;;;;;;;27.78;37.19;101190.22;144992;730;6004;-82
2021/08/24 00:03:37;;;;;;;3.05;2.53;;;;;;;27.76;37.22;101188.50;144992;593;6004;-81
2021/08/24 00:06:04;;;;;;;6.07;2.47;;;;;;;27.76;37.35;101191.19;144992;602;6004;-82
2021/08/24 00:08:31;;;;;;;4.18;2.47;;;;;;;27.78;37.34;101187.53;144992;578;6004;-82
2021/08/24 00:10:58;;;;;;;3.40;2.72;;;;;;;27.79;37.42;101189.28;144992;573;6004;-82
2021/08/24 00:13:27;;;;;;;3.55;2.33;;;;;;;27.79;37.42;101185.75;144992;695;6004;-81
2021/08/24 00:15:55;;;;;;;4.60;2.70;;;;;;;27.76;37.57;101180.50;144992;591;6004;-81
2021/08/24 00:18:22;;;;;;;3.17;2.75;;;;;;;27.77;37.57;101185.78;144992;584;6004;-82
2021/08/24 00:20:52;;;;;;;2.50;2.20;;;;;;;27.80;37.79;101187.50;144992;645;6004;-81
2021/08/24 00:23:20;;;;;;;2.95;2.65;;;;;;;27.81;37.53;101181.25;144991;641;6000;-82
2021/08/24 00:25:51;;;;;;;3.22;2.70;;;;;;;27.82;37.70;101178.53;144992;577;6002;-83
2021/08/24 00:28:18;;;;;;;5.03;3.10;;;;;;;27.82;37.81;101173.19;144992;597;6002;-81
2021/08/24 00:30:45;;;;;;;4.53;3.20;;;;;;;27.77;37.90;101174.25;144992;585;6002;-83
2021/08/24 00:33:12;;;;;;;4.15;2.87;;;;;;;27.66;38.05;101171.97;144992;679;6002;-82
2021/08/24 00:35:40;;;;;;;5.65;3.17;;;;;;;27.64;38.22;101179.16;144992;581;6002;-82
2021/08/24 00:38:12;;;;;;;6.32;3.60;;;;;;;27.61;38.38;101172.13;144992;564;6002;-84
2021/08/24 00:40:40;;;;;;;4.80;3.40;;;;;;;27.64;38.43;101169.34;144992;571;6002;-82
2021/08/24 00:43:13;;;;;;;5.28;3.30;;;;;;;27.71;38.40;101174.47;144992;594;6002;-83
2021/08/24 00:45:49;;;;;;;6.65;3.47;;;;;;;27.75;38.51;101171.66;144992;574;6011;-84
2021/08/24 00:48:17;;;;;;;3.85;2.87;;;;;;;27.84;38.27;101179.34;144991;726;6002;-83
2021/08/24 00:50:48;;;;;;;3.58;3.08;;;;;;;27.93;38.35;101169.25;144992;584;6002;-82
2021/08/24 00:53:19;;;;;;;7.22;3.55;;;;;;;27.94;38.22;101169.22;144992;595;6002;-81
2021/08/24 00:55:48;;;;;;;3.75;3.17;;;;;;;27.85;38.33;101172.19;144992;572;6002;-83
2021/08/24 00:58:17;;;;;;;6.32;2.97;;;;;;;27.75;38.45;101171.66;144992;595;6002;-83
2021/08/24 01:00:45;;;;;;;5.97;3.30;;;;;;;27.68;38.59;101168.31;144992;587;6002;-82
2021/08/24 01:03:26;;;;;;;10.23;3.78;;;;;;;27.63;38.57;101170.28;144992;585;6002;-81
2021/08/24 01:05:57;;;;;;;5.20;2.72;;;;;;;27.58;38.64;101161.56;144992;564;6002;-82
2021/08/24 01:09:04;;;;;;;5.03;3.20;;;;;;;27.54;38.65;101167.94;144992;567;6002;-82
2021/08/24 01:12:03;;;;;;;4.57;3.30;;;;;;;27.51;38.71;101165.37;144992;598;6004;-82
2021/08/24 01:15:00;;;;;;;4.25;2.78;;;;;;;27.36;38.87;101153.41;144992;584;6003;-82
2021/08/24 01:17:41;;;;;;;6.22;2.65;;;;;;;27.37;38.76;101160.50;144992;583;6002;-82
2021/08/24 01:20:32;;;;;;;4.35;3.10;;;;;;;27.36;39.07;101160.53;144992;578;6002;-81
2021/08/24 01:23:34;;;;;;;4.65;3.10;;;;;;;27.40;38.87;101143.53;144992;620;6002;-83
2021/08/24 01:26:27;;;;;;;6.20;3.00;;;;;;;27.39;38.85;101150.62;144992;594;6002;-81
2021/08/24 01:29:32;;;;;;;5.65;2.70;;;;;;;27.35;38.83;101150.81;144992;589;6004;-81
2021/08/24 01:32:34;;;;;;;6.62;3.10;;;;;;;27.32;38.80;101149.97;144991;579;6002;-82
2021/08/24 01:35:42;;;;;;;4.85;2.95;;;;;;;27.26;38.95;101157.28;144993;596;6004;-83
2021/08/24 01:38:27;;;;;;;5.22;3.08;;;;;;;27.20;38.67;101153.00;144993;567;6004;-81
2021/08/24 01:41:36;;;;;;;4.82;3.00;;;;;;;27.20;38.84;101147.69;144993;587;6002;-81
2021/08/24 01:44:20;;;;;;;4.25;2.90;;;;;;;27.22;38.88;101151.19;144993;564;6002;-82
2021/08/24 01:47:08;;;;;;;4.82;2.87;;;;;;;27.20;38.96;101152.16;144993;913;6002;-83
2021/08/24 01:49:56;;;;;;;4.57;3.03;;;;;;;27.22;38.76;101152.97;144993;563;6002;-82
2021/08/24 01:52:27;;;;;;;4.90;2.85;;;;;;;27.26;38.80;101141.28;144993;587;6002;-83
2021/08/24 01:55:00;;;;;;;3.78;2.90;;;;;;;27.28;38.55;101136.78;144993;615;6002;-81
2021/08/24 01:57:33;;;;;;;4.67;2.80;;;;;;;27.27;38.58;101127.91;144993;585;6002;-82
2021/08/24 02:00:08;;;;;;;5.12;2.80;;;;;;;27.30;38.80;101143.84;144993;640;6002;-82
2021/08/24 02:02:48;;;;;;;3.10;2.80;;;;;;;27.31;38.63;101139.38;144993;609;6002;-81
2021/08/24 02:05:23;;;;;;;3.87;2.72;;;;;;;27.31;38.59;101137.59;144993;590;6002;-82
2021/08/24 02:08:02;;;;;;;4.68;3.05;;;;;;;27.30;38.43;101127.84;144992;620;6002;-81
2021/08/24 02:10:31;;;;;;;6.68;3.00;;;;;;;27.34;38.37;101136.59;144992;693;6002;-82
2021/08/24 02:13:00;;;;;;;4.60;3.30;;;;;;;27.35;38.33;101135.69;144992;563;6002;-82
2021/08/24 02:15:52;;;;;;;5.60;3.20;;;;;;;27.36;38.30;101133.88;144992;625;6002;-81
2021/08/24 02:18:26;;;;;;;4.30;3.10;;;;;;;27.33;38.54;101134.87;144992;579;6002;-81
2021/08/24 02:21:00;;;;;;;4.65;3.15;;;;;;;27.29;38.43;101131.38;144993;595;6002;-81
2021/08/24 02:23:30;;;;;;;4.87;3.10;;;;;;;27.29;38.46;101125.19;144993;578;6002;-81
2021/08/24 02:26:00;;;;;;;5.15;3.03;;;;;;;27.30;38.40;101118.97;144993;698;6002;-81
2021/08/24 02:28:33;;;;;;;3.95;2.90;;;;;;;27.29;38.47;101114.53;144993;587;6002;-82
2021/08/24 02:31:10;;;;;;;5.05;3.00;;;;;;;27.29;38.44;101123.41;144993;565;6002;-82
2021/08/24 02:34:06;;;;;;;5.40;3.10;;;;;;;27.30;38.46;101119.84;144993;563;6002;-82
2021/08/24 02:36:36;;;;;;;3.15;2.80;;;;;;;27.29;38.57;101118.06;144993;576;6002;-80
2021/08/24 02:39:20;;;;;;;4.10;2.95;;;;;;;27.29;38.51;101120.72;144993;582;6002;-88
2021/08/24 02:42:38;;;;;;;;;;;;;;;;;;;;;
2021/08/24 02:45:23;;;;;;;4.03;3.10;;;;;;;27.46;38.77;101122.00;144993;722;6000;-82
2021/08/24 02:47:51;;;;;;;4.10;3.08;;;;;;;27.56;38.48;101120.75;144993;672;6002;-82
2021/08/24 02:50:19;;;;;;;3.67;2.97;;;;;;;27.63;38.54;101129.41;144993;592;6002;-83
2021/08/24 02:52:48;;;;;;;4.72;3.50;;;;;;;27.62;38.44;101127.69;144993;595;6002;-81
2021/08/24 02:55:15;;;;;;;4.93;3.10;;;;;;;27.51;38.04;101120.91;144993;577;6002;-82
2021/08/24 02:57:42;;;;;;;3.25;2.95;;;;;;;27.53;38.15;101125.31;144993;569;6002;-81
2021/08/24 03:00:09;;;;;;;4.62;3.50;;;;;;;27.49;38.28;101120.09;144993;597;6002;-82
2021/08/24 03:02:35;;;;;;;5.87;3.00;;;;;;;27.45;38.32;101123.78;144993;573;6002;-82
2021/08/24 03:05:02;;;;;;;7.35;3.50;;;;;;;27.43;38.34;101122.09;144993;583;6002;-82
2021/08/24 03:07:31;;;;;;;3.30;3.00;;;;;;;27.35;38.37;101130.34;144993;570;6002;-81
2021/08/24 03:10:03;;;;;;;3.30;3.00;;;;;;;27.32;38.26;101125.13;144993;646;6002;-83
2021/08/24 03:13:21;;;;;;;4.37;3.58;;;;;;;27.28;38.44;101129.66;144993;631;6002;-81
2021/08/24 03:16:04;;;;;;;7.40;3.87;;;;;;;27.22;38.48;101128.97;144994;583;5002;-82
2021/08/24 03:18:37;;;;;;;12.45;4.40;;;;;;;27.19;38.67;101131.75;144994;758;5002;-82
2021/08/24 03:21:07;;;;;;;8.25;3.58;;;;;;;27.16;38.68;101122.06;144993;593;5002;-81
2021/08/24 03:23:38;;;;;;;7.05;3.33;;;;;;;27.10;38.69;101133.78;144994;650;5002;-82
2021/08/24 03:26:05;;;;;;;6.50;3.22;;;;;;;27.08;38.68;101132.13;144993;618;5989;-81
2021/08/24 03:28:32;;;;;;;10.38;4.15;;;;;;;27.06;38.71;101131.28;144994;622;5003;-82
2021/08/24 03:30:58;;;;;;;8.13;4.00;;;;;;;27.04;39.08;101134.00;144994;606;5002;-82
2021/08/24 03:33:25;;;;;;;7.75;4.45;;;;;;;27.03;38.86;101131.38;144994;590;5002;-81
2021/08/24 03:35:51;;;;;;;11.05;4.28;;;;;;;26.99;38.99;101135.06;144994;629;5003;-83
2021/08/24 03:38:28;;;;;;;8.00;3.92;;;;;;;26.95;39.02;101134.31;144994;580;5002;-82
2021/08/24 03:40:57;;;;;;;4.95;3.92;;;;;;;26.98;39.49;101139.53;144994;748;5002;-82
2021/08/24 03:43:23;;;;;;;8.45;4.15;;;;;;;26.95;39.94;101131.66;144994;569;5002;-82
2021/08/24 03:45:50;;;;;;;8.90;4.55;;;;;;;26.94;39.44;101138.75;144994;564;5002;-81
2021/08/24 03:48:16;;;;;;;11.05;4.25;;;;;;;26.92;39.23;101134.41;144994;581;5002;-82
2021/08/24 03:50:43;;;;;;;7.68;3.80;;;;;;;26.89;39.79;101140.69;144994;596;5002;-82
2021/08/24 03:53:09;;;;;;;8.50;4.00;;;;;;;26.89;39.55;101146.03;144994;566;5002;-81
2021/08/24 03:55:36;;;;;;;8.93;3.90;;;;;;;26.87;39.85;101150.53;144994;585;5002;-82
2021/08/24 03:58:02;;;;;;;4.55;3.53;;;;;;;26.84;39.84;101137.31;144994;911;5002;-83
2021/08/24 04:00:29;;;;;;;4.65;3.50;;;;;;;26.86;39.91;101140.78;144994;637;5002;-82
2021/08/24 04:02:55;;;;;;;7.78;4.40;;;;;;;26.88;39.77;101143.41;144994;632;5002;-82
2021/08/24 04:05:22;;;;;;;9.77;4.85;;;;;;;26.89;39.69;101147.81;144994;563;5002;-81
2021/08/24 04:07:48;;;;;;;12.68;4.40;;;;;;;26.90;39.76;101138.87;144994;625;5002;-82
2021/08/24 04:10:15;;;;;;;6.72;4.25;;;;;;;26.90;39.59;101142.44;144994;770;5002;-81
2021/08/24 04:12:41;;;;;;;7.75;4.15;;;;;;;26.91;40.02;101141.50;144994;911;5002;-82
2021/08/24 04:15:09;;;;;;;6.07;3.83;;;;;;;26.92;39.79;101139.72;144994;567;5002;-81
2021/08/24 04:17:40;;;;;;;7.15;3.92;;;;;;;26.93;39.97;101149.44;144994;563;5002;-82
2021/08/24 04:20:10;;;;;;;6.45;3.70;;;;;;;26.93;40.31;101145.00;144994;911;5002;-82
2021/08/24 04:22:40;;;;;;;6.87;3.90;;;;;;;26.92;40.25;101143.25;144994;566;5002;-82
2021/08/24 04:25:07;;;;;;;8.32;3.72;;;;;;;26.94;40.13;101148.53;144994;582;5002;-82
2021/08/24 04:27:34;;;;;;;7.35;3.78;;;;;;;26.92;40.39;101158.38;144994;584;5002;-81
2021/08/24 04:30:00;;;;;;;8.90;4.10;;;;;;;26.93;40.52;101154.78;144994;594;5002;-81
2021/08/24 04:32:29;;;;;;;7.03;4.10;;;;;;;26.92;40.60;101153.91;144994;585;5002;-81
2021/08/24 04:34:56;;;;;;;5.35;4.18;;;;;;;26.87;40.65;101158.53;144994;574;5002;-82
2021/08/24 04:37:23;;;;;;;8.43;4.70;;;;;;;26.88;40.65;101156.72;144994;637;5002;-82
2021/08/24 04:39:50;;;;;;;6.47;4.82;;;;;;;26.89;40.85;101161.12;144994;569;5002;-82
2021/08/24 04:42:16;;;;;;;6.87;4.60;;;;;;;26.88;40.83;101162.06;144994;589;5002;-81
2021/08/24 04:44:43;;;;;;;6.45;4.35;;;;;;;26.88;40.82;101159.37;144994;573;5002;-81
2021/08/24 04:47:09;;;;;;;7.68;4.30;;;;;;;26.92;40.85;101164.56;144994;563;5002;-82
2021/08/24 04:49:36;;;;;;;8.93;4.62;;;;;;;26.93;40.83;101166.31;144994;579;5002;-81
2021/08/24 04:52:03;;;;;;;10.38;4.62;;;;;;;26.96;40.82;101170.66;144994;583;5002;-82
2021/08/24 04:54:33;;;;;;;9.30;4.57;;;;;;;26.97;40.84;101167.94;144994;911;5002;-81
2021/08/24 04:57:01;;;;;;;6.82;4.37;;;;;;;27.01;40.90;101168.72;144994;595;5002;-81
2021/08/24 04:59:28;;;;;;;8.02;4.65;;;;;;;27.06;40.79;101173.91;144994;583;5002;-81
2021/08/24 05:01:54;;;;;;;9.23;5.85;;;;;;;27.10;40.91;101172.91;144994;611;5002;-83
2021/08/24 05:04:21;;;;;;;10.00;5.97;;;;;;;27.06;40.71;101171.25;144994;569;5002;-81
2021/08/24 05:06:47;;;;;;;10.25;6.35;;;;;;;27.07;40.95;101171.19;144994;593;5002;-83
2021/08/24 05:09:29;;;;;;;13.55;7.12;;;;;;;27.08;41.27;101170.28;144994;702;5002;-81
2021/08/24 05:11:58;;;;;;;9.65;6.37;;;;;;;27.17;41.06;101179.78;144994;624;5002;-82
2021/08/24 05:14:25;;;;;;;14.10;7.07;;;;;;;27.27;41.06;101175.03;144994;591;5002;-83
2021/08/24 05:16:56;;;;;;;9.43;6.72;;;;;;;27.36;41.01;101172.06;144994;599;5002;-84
2021/08/24 05:19:26;;;;;;;10.80;7.32;;;;;;;27.48;40.89;101168.13;144994;586;5002;-83
2021/08/24 05:21:53;;;;;;;13.88;8.18;;;;;;;27.61;40.69;101179.25;144994;572;5002;-82
2021/08/24 05:24:20;;;;;;;12.30;6.68;;;;;;;27.63;40.93;101174.72;144994;640;5002;-82
2021/08/24 05:26:46;;;;;;;10.35;6.18;;;;;;;27.63;40.71;101175.63;144994;616;5002;-81
2021/08/24 05:29:16;;;;;;;7.97;5.07;;;;;;;27.67;40.48;101174.56;144994;593;5002;-81
2021/08/24 05:31:44;;;;;;;6.57;4.00;;;;;;;27.71;40.66;101175.31;144994;575;5002;-81
2021/08/24 05:34:10;;;;;;;9.88;4.70;;;;;;;27.75;40.50;101179.66;144994;575;5002;-81
2021/08/24 05:36:37;;;;;;;9.82;3.90;;;;;;;27.77;40.50;101180.44;144994;564;5002;-81
2021/08/24 05:39:05;;;;;;;9.48;4.43;;;;;;;27.80;40.44;101180.34;144994;585;5002;-80
2021/08/24 05:41:31;;;;;;;8.85;4.80;;;;;;;27.83;40.54;101180.25;144994;661;5002;-83
2021/08/24 05:43:58;;;;;;;8.80;4.47;;;;;;;27.87;40.55;101173.88;144994;596;5002;-82
2021/08/24 05:46:26;;;;;;;9.63;4.72;;;;;;;27.90;40.37;101172.03;144994;570;5002;-81
2021/08/24 05:48:52;;;;;;;9.80;5.65;;;;;;;27.91;40.54;101165.78;144994;683;5002;-82
2021/08/24 05:51:21;;;;;;;14.32;5.32;;;;;;;27.92;40.67;101164.84;144994;582;5002;-82
2021/08/24 05:53:48;;;;;;;11.93;4.72;;;;;;;27.92;40.66;101167.50;144994;575;5002;-81
2021/08/24 05:56:17;;;;;;;5.87;4.57;;;;;;;27.97;40.82;101170.94;144994;563;5002;-81
2021/08/24 05:58:44;;;;;;;9.50;4.00;;;;;;;28.07;40.69;101171.47;144994;572;5002;-81
2021/08/24 06:01:18;;;;;;;11.88;4.15;;;;;;;28.15;40.59;101172.91;144994;573;5002;-80
2021/08/24 06:03:45;;;;;;;9.75;4.70;;;;;;;28.20;40.56;101168.28;144994;624;5002;-81
2021/08/24 06:06:26;;;;;;;12.25;4.22;;;;;;;28.28;40.46;101167.12;144994;577;5002;-82
2021/08/24 06:08:53;;;;;;;8.52;4.07;;;;;;;28.32;40.52;101166.09;144994;585;5002;-80
2021/08/24 06:11:32;;;;;;;8.63;4.00;;;;;;;28.37;40.36;101166.78;144993;585;5002;-81
2021/08/24 06:14:01;;;;;;;6.07;4.10;;;;;;;28.44;40.40;101159.41;144994;744;5002;-82
2021/08/24 06:16:27;;;;;;;9.32;3.90;;;;;;;28.50;40.35;101170.72;144994;631;5002;-81
2021/08/24 06:18:54;;;;;;;9.18;4.05;;;;;;;28.55;40.18;101166.06;144994;610;5002;-80
2021/08/24 06:21:20;;;;;;;9.15;3.97;;;;;;;28.61;40.05;101166.81;144994;731;5002;-83
2021/08/24 06:23:48;;;;;;;6.70;3.65;;;;;;;28.66;40.40;101167.50;144994;601;5002;-83
2021/08/24 06:26:15;;;;;;;7.28;3.55;;;;;;;28.73;40.12;101171.66;144994;580;5002;-81
2021/08/24 06:28:41;;;;;;;7.30;3.85;;;;;;;28.74;40.08;101176.09;144994;579;5002;-81
2021/08/24 06:31:12;;;;;;;7.87;4.03;;;;;;;28.75;38.93;101167.16;144994;587;5002;-82
2021/08/24 06:33:47;;;;;;;7.87;3.92;;;;;;;28.80;40.31;101167.84;144994;569;5002;-81
2021/08/24 06:36:31;;;;;;;10.95;4.53;;;;;;;28.98;40.25;101168.91;144994;717;5002;-83
2021/08/24 06:39:00;;;;;;;8.60;4.70;;;;;;;29.18;40.17;101168.09;144994;592;5002;-81
2021/08/24 06:41:26;;;;;;;8.95;4.65;;;;;;;29.37;39.78;101167.38;144994;588;5002;-83
2021/08/24 06:43:56;;;;;;;12.35;4.40;;;;;;;29.44;39.65;101156.34;144994;564;5002;-83
2021/08/24 06:46:37;;;;;;;5.95;3.90;;;;;;;29.55;39.73;101165.72;144994;656;5002;-83
2021/08/24 06:49:08;;;;;;;9.02;4.50;;;;;;;29.72;39.25;101163.19;144994;575;5002;-79
2021/08/24 06:51:37;;;;;;;6.90;4.57;;;;;;;29.77;38.31;101166.53;144994;586;5002;-79
2021/08/24 06:54:06;;;;;;;6.20;4.50;;;;;;;29.79;39.51;101163.81;144994;745;5002;-81
2021/08/24 06:56:34;;;;;;;6.72;5.28;;;;;;;29.89;38.36;101167.84;144994;690;5002;-82
2021/08/24 06:59:03;;;;;;;8.52;4.90;;;;;;;29.86;39.11;101157.28;144994;747;5002;-80
2021/08/24 07:01:30;;;;;;;10.82;5.62;;;;;;;29.87;37.69;101159.00;144994;609;5002;-84
2021/08/24 07:03:57;;;;;;;8.25;4.55;;;;;;;29.81;36.88;101162.81;144994;661;5002;-82
2021/08/24 07:06:23;;;;;;;7.80;4.35;;;;;;;29.88;39.01;101167.91;144994;564;5002;-84
2021/08/24 07:08:53;;;;;;;7.43;4.47;;;;;;;29.93;38.78;101157.88;144994;608;5002;-81
2021/08/24 07:11:20;;;;;;;7.62;4.47;;;;;;;29.82;37.82;101169.91;144994;576;5002;-82
2021/08/24 07:13:50;;;;;;;6.47;4.30;;;;;;;29.60;38.38;101174.41;144994;588;5002;-82
2021/08/24 07:16:16;;;;;;;7.28;4.55;;;;;;;29.66;39.17;101163.44;144994;589;5002;-82
2021/08/24 07:18:43;;;;;;;7.10;4.15;;;;;;;29.61;38.85;101170.81;144994;635;5002;-82
2021/08/24 07:21:14;;;;;;;7.10;4.10;;;;;;;29.55;39.29;101174.59;144994;575;5002;-81
2021/08/24 07:23:41;;;;;;;6.25;4.10;;;;;;;29.56;39.51;101173.69;144994;641;5002;-81
2021/08/24 07:26:10;;;;;;;9.00;4.10;;;;;;;29.60;39.80;101169.06;144994;572;5002;-82
2021/08/24 07:28:37;;;;;;;7.57;4.00;;;;;;;29.34;40.30;101181.72;144994;580;5002;-81
2021/08/24 07:31:04;;;;;;;4.45;3.75;;;;;;;29.11;41.03;101182.63;144994;600;5002;-81
2021/08/24 07:33:30;;;;;;;6.53;4.35;;;;;;;29.22;40.77;101188.44;144994;579;5002;-81
2021/08/24 07:35:56;;;;;;;7.72;4.45;;;;;;;29.16;40.76;101178.00;144994;721;5002;-82
2021/08/24 07:38:23;;;;;;;8.15;4.72;;;;;;;29.10;41.21;101184.44;144994;623;5002;-81
2021/08/24 07:40:49;;;;;;;6.05;4.25;;;;;;;29.02;41.21;101180.34;144994;626;5002;-81
2021/08/24 07:43:17;;;;;;;7.40;4.12;;;;;;;29.09;41.26;101187.19;144994;628;5002;-82
2021/08/24 07:45:44;;;;;;;5.45;4.20;;;;;;;29.11;41.10;101187.97;144994;641;4566;-79
2021/08/24 07:48:12;;;;;;;7.03;3.78;;;;;;;29.06;41.50;101189.97;144994;595;4569;-82
2021/08/24 07:50:39;;;;;;;6.53;3.87;;;;;;;29.05;41.40;101189.13;144994;585;4572;-81
2021/08/24 07:53:06;;;;;;;6.70;3.67;;;;;;;29.08;41.42;101185.41;144992;606;6002;-81
2021/08/24 07:55:34;;;;;;;10.23;4.30;;;;;;;29.14;41.82;101185.19;144992;565;6002;-80
2021/08/24 07:58:02;;;;;;;7.95;3.72;;;;;;;29.09;43.71;101184.50;144992;565;6002;-83
2021/08/24 08:00:29;;;;;;;7.00;3.55;;;;;;;29.17;42.98;101186.88;144992;579;6002;-81
2021/08/24 08:02:55;;;;;;;5.20;3.65;;;;;;;29.16;42.80;101191.34;144991;622;6002;-81
2021/08/24 08:05:22;;;;;;;6.47;3.60;;;;;;;29.21;42.74;101184.03;144992;570;6002;-82
2021/08/24 08:07:49;;;;;;;7.62;4.10;;;;;;;29.36;44.26;101195.03;144991;571;6002;-82
2021/08/24 08:10:15;;;;;;;4.80;3.50;;;;;;;29.37;43.78;101186.09;144992;565;6002;-80
2021/08/24 08:12:53;;;;;;;5.35;3.80;;;;;;;29.18;44.21;101181.47;144992;581;6002;-81
2021/08/24 08:15:31;;;;;;;6.57;3.70;;;;;;;29.10;44.89;101178.25;144992;590;6002;-82
2021/08/24 08:18:05;;;;;;;7.70;3.50;;;;;;;29.40;45.75;101181.47;144992;699;6002;-81
2021/08/24 08:20:44;;;;;;;5.37;3.50;;;;;;;29.49;45.30;101177.53;144992;574;6002;-80
2021/08/24 08:23:24;;;;;;;5.20;3.40;;;;;;;29.60;44.46;101185.97;144992;610;6002;-82
2021/08/24 08:26:03;;;;;;;6.43;3.60;;;;;;;29.75;44.64;101181.78;144992;569;6002;-80
2021/08/24 08:28:44;;;;;;;6.60;3.87;;;;;;;29.90;44.33;101177.59;144992;602;6002;-82
2021/08/24 08:31:21;;;;;;;4.72;3.42;;;;;;;29.98;44.58;101175.44;144992;643;6002;-83
2021/08/24 08:33:51;;;;;;;5.50;3.25;;;;;;;29.84;44.29;101175.19;144992;612;6002;-80
2021/08/24 08:36:24;;;;;;;5.00;3.80;;;;;;;29.96;44.32;101171.97;144992;565;6002;-82
2021/08/24 08:39:05;;;;;;;6.32;3.65;;;;;;;29.96;44.37;101171.12;144992;610;6002;-82
2021/08/24 08:42:23;;;;;;;6.97;3.90;;;;;;;29.79;45.10;101169.16;144992;657;6002;-81
2021/08/24 08:45:22;;;;;;;;;;;;;;;;;;;;;
2021/08/24 08:48:38;;;;;;;4.85;3.70;;;;;;;29.83;44.48;101166.28;144992;564;6005;-81
2021/08/24 08:52:08;;;;;;;4.80;3.67;;;;;;;30.03;43.94;101159.19;144992;577;6002;-82
2021/08/24 08:54:58;;;;;;;8.80;4.90;;;;;;;29.89;44.04;101164.28;144992;672;6002;-83
2021/08/24 08:58:10;;;;;;;5.05;4.03;;;;;;;29.94;44.05;101154.22;144992;564;6004;-80
2021/08/24 09:01:13;;;;;;;6.80;4.20;;;;;;;30.25;43.49;101164.44;144992;579;6004;-82
2021/08/24 09:04:18;;;;;;;5.00;3.90;;;;;;;30.28;43.23;101160.75;144992;643;6004;-82
2021/08/24 09:07:02;;;;;;;5.53;4.12;;;;;;;30.24;43.68;101160.00;144992;581;6002;-85
2021/08/24 09:09:38;;;;;;;4.93;4.37;;;;;;;30.35;43.65;101156.84;144992;565;6002;-82
2021/08/24 09:12:21;;;;;;;7.65;4.68;;;;;;;30.08;43.85;101159.84;144992;592;6002;-87
2021/08/24 09:14:59;;;;;;;6.45;4.35;;;;;;;30.28;43.96;101158.06;144992;583;6002;-79
2021/08/24 09:17:38;;;;;;;5.07;4.10;;;;;;;30.44;44.29;101152.91;144992;593;6002;-82
2021/08/24 09:20:39;;;;;;;12.52;7.40;;;;;;;30.16;44.20;101157.69;144992;689;6002;-80
2021/08/24 09:23:06;;;;;;;6.87;4.00;;;;;;;30.37;43.70;101161.19;144992;571;6004;-81
2021/08/24 09:26:16;;;;;;;6.00;3.85;;;;;;;30.30;43.78;101150.84;144992;589;6004;-82
2021/08/24 09:28:44;;;;;;;5.90;4.05;;;;;;;30.28;43.91;101150.03;144992;574;6002;-83
2021/08/24 09:31:19;;;;;;;8.50;4.37;;;;;;;30.05;44.31;101151.97;144992;571;6002;-82
2021/08/24 09:33:47;;;;;;;6.95;4.78;;;;;;;29.86;45.06;101151.91;144992;607;6002;-82
2021/08/24 09:36:13;;;;;;;7.78;5.10;;;;;;;29.70;45.44;101145.44;144992;622;6002;-81
2021/08/24 09:38:54;;;;;;;8.10;4.47;;;;;;;29.83;45.14;101155.59;144992;652;6002;-81
2021/08/24 09:41:26;;;;;;;5.47;4.00;;;;;;;29.83;44.58;101144.88;144991;565;6002;-80
2021/08/24 09:43:55;;;;;;;5.47;3.55;;;;;;;29.97;44.79;101141.59;144992;594;6002;-82
2021/08/24 09:46:33;;;;;;;5.05;4.10;;;;;;;29.89;44.85;101149.13;144992;577;6002;-83
2021/08/24 09:49:28;;;;;;;6.87;3.87;;;;;;;29.85;43.42;101145.69;144992;625;6002;-80
2021/08/24 09:52:00;;;;;;;8.88;4.75;;;;;;;29.88;44.17;101151.84;144992;583;6004;-80
2021/08/24 09:54:31;;;;;;;9.40;5.70;;;;;;;29.71;43.62;101140.03;144992;572;6004;-81
2021/08/24 09:57:06;;;;;;;6.75;4.50;;;;;;;29.65;44.12;101141.19;144992;616;6004;-82
2021/08/24 09:59:42;;;;;;;12.05;8.90;;;;;;;29.77;44.38;101133.56;144992;576;6004;-82
2021/08/24 10:02:54;;;;;;;7.75;4.37;;;;;;;29.95;43.89;101138.09;144992;640;6004;-80
2021/08/24 10:05:38;;;;;;;5.80;3.55;;;;;;;30.12;43.38;101141.84;144992;590;6004;-81
2021/08/24 10:08:27;;;;;;;4.87;3.83;;;;;;;30.15;42.80;101145.25;144992;586;6002;-81
2021/08/24 10:11:13;;;;;;;5.12;3.55;;;;;;;30.02;43.08;101134.22;144992;570;6004;-82
2021/08/24 10:13:43;;;;;;;9.52;3.83;;;;;;;30.13;42.38;101133.75;144992;583;6004;-83
2021/08/24 10:16:19;;;;;;;5.37;4.00;;;;;;;30.06;42.92;101118.87;144992;646;6004;-81
2021/08/24 10:18:53;;;;;;;4.95;3.78;;;;;;;29.94;42.46;101122.13;144992;614;6004;-83
2021/08/24 10:21:40;;;;;;;;;;;;;;;30.19;42.45;101121.87;144997;492;6002;-83
2021/08/24 10:24:12;;;;;;;4.72;3.60;;;;;;;30.09;42.73;101118.75;144997;578;6000;-84
2021/08/24 10:26:40;;;;;;;7.62;4.03;;;;;;;30.23;42.67;101125.31;144992;616;6002;-85
2021/08/24 10:29:13;;;;;;;7.35;3.90;;;;;;;30.24;42.08;101111.81;144992;587;6002;-87
2021/08/24 10:31:58;;;;;;;4.20;3.70;;;;;;;30.31;42.40;101118.63;144992;589;6002;-83
2021/08/24 10:34:33;;;;;;;5.57;3.75;;;;;;;30.26;42.07;101115.31;144992;602;6002;-84
2021/08/24 10:37:31;;;;;;;5.72;3.70;;;;;;;30.17;42.07;101110.38;144992;622;6002;-82
2021/08/24 10:40:45;;;;;;;5.20;3.87;;;;;;;30.24;41.83;101113.62;144992;585;6005;-83
2021/08/24 10:43:19;;;;;;;5.22;3.78;;;;;;;30.14;42.41;101110.50;144992;575;6002;-87
2021/08/24 10:46:16;;;;;;;5.12;4.25;;;;;;;30.09;42.67;101107.19;144992;599;6002;-84
2021/08/24 10:48:43;;;;;;;5.12;3.83;;;;;;;30.09;42.59;101104.50;144992;568;6004;-84
2021/08/24 10:51:47;;;;;;;4.37;3.60;;;;;;;30.29;42.58;101108.91;144992;651;6004;-85
2021/08/24 10:54:42;;;;;;;4.82;3.90;;;;;;;30.44;41.40;101096.66;144992;579;6002;-83
2021/08/24 10:57:58;;;;;;;5.60;3.45;;;;;;;30.48;41.59;101115.19;144992;586;6004;-85
2021/08/24 11:01:00;;;;;;;5.03;4.40;;;;;;;30.39;41.76;101099.56;144992;574;6002;-85
2021/08/24 11:04:05;;;;;;;3.60;3.30;;;;;;;30.58;41.49;101104.91;144992;593;6004;-83
2021/08/24 11:06:50;;;;;;;4.15;3.33;;;;;;;30.50;41.65;101115.13;144992;623;6002;-83
2021/08/24 11:09:52;;;;;;;6.53;3.60;;;;;;;30.39;41.10;101103.09;144992;619;6002;-86
2021/08/24 11:13:14;;;;;;;6.60;3.72;;;;;;;30.51;41.59;101103.44;144992;567;6004;-84
2021/08/24 11:15:56;;;;;;;4.37;3.40;;;;;;;30.32;42.26;101104.31;144992;572;6004;-85
2021/08/24 11:18:57;;;;;;;4.37;3.60;;;;;;;30.43;42.19;101094.91;144992;609;6004;-84
2021/08/24 11:21:43;;;;;;;4.87;3.83;;;;;;;30.41;42.17;101104.84;144992;573;6002;-82
2021/08/24 11:24:42;;;;;;;4.90;3.50;;;;;;;30.26;42.04;101090.31;144992;586;6002;-82
2021/08/24 11:27:49;;;;;;;4.22;3.83;;;;;;;30.34;42.10;101091.72;144992;583;6004;-84
2021/08/24 11:30:24;;;;;;;5.12;3.70;;;;;;;30.43;41.37;101089.56;144992;594;6002;-84
2021/08/24 11:32:55;;;;;;;;;;;;;;;30.51;42.03;101082.91;144997;915;6002;-84
2021/08/24 11:35:30;;;;;;;5.45;3.67;;;;;;;30.50;41.66;101099.06;144997;656;6002;-83
2021/08/24 11:38:07;;;;;;;5.82;4.22;;;;;;;30.47;42.65;101092.03;144992;579;6002;-85
2021/08/24 11:41:00;;;;;;;3.47;3.03;;;;;;;30.44;42.78;101086.81;144992;600;6002;-85
2021/08/24 11:43:49;;;;;;;4.90;3.30;;;;;;;30.46;42.30;101086.75;144991;633;6000;-84
2021/08/24 11:46:46;;;;;;;6.03;4.18;;;;;;;30.96;41.79;101066.44;144992;577;6002;-81
2021/08/24 11:49:29;;;;;;;3.83;3.30;;;;;;;33.27;37.12;101075.38;144992;583;6004;-81
2021/08/24 11:52:06;;;;;;;5.55;2.95;;;;;;;34.93;34.28;101074.78;144992;565;6004;-81
2021/08/24 11:54:59;;;;;;;3.20;2.75;;;;;;;36.08;31.79;101073.16;144992;663;6005;-80
2021/08/24 11:57:50;;;;;;;4.03;2.78;;;;;;;36.55;30.43;101073.38;144992;677;6004;-76
2021/08/24 12:00:18;;;;;;;3.80;2.97;;;;;;;37.04;30.04;101062.44;144992;608;6004;-81
2021/08/24 12:02:48;;;;;;;5.65;3.35;;;;;;;37.15;29.52;101064.31;144992;581;6004;-81
2021/08/24 12:05:28;;;;;;;4.10;3.50;;;;;;;37.39;29.68;101058.00;144992;569;6004;-82
2021/08/24 12:08:10;;;;;;;4.25;2.92;;;;;;;37.45;28.94;101057.53;144992;599;6004;-80
2021/08/24 12:11:01;;;;;;;3.72;2.92;;;;;;;37.72;29.26;101048.19;144992;633;6004;-80
2021/08/24 12:13:39;;;;;;;3.15;2.70;;;;;;;37.85;28.72;101051.66;144991;626;6002;-82
2021/08/24 12:16:31;;;;;;;2.92;2.62;;;;;;;37.89;27.34;101050.41;144992;603;6002;-83
2021/08/24 12:19:26;;;;;;;4.28;2.85;;;;;;;37.88;27.70;101046.00;144992;618;6004;-82